createdAt,value
2019-05-29T00:01:59.896Z,100057.22
2019-05-29T00:04:50.354Z,100066.89
2019-05-29T00:07:40.704Z,100064.75
2019-05-29T00:10:30.943Z,100055.47
2019-05-29T00:13:21.000Z,100049.09
2019-05-29T00:16:12.376Z,100049.63
2019-05-29T00:19:02.509Z,100064.51
2019-05-29T00:21:52.739Z,100057.71
2019-05-29T00:24:43.122Z,100065.24
2019-05-29T00:27:33.340Z,100065.62
2019-05-29T00:30:24.618Z,100063.23
2019-05-29T00:33:14.868Z,100062.18
2019-05-29T00:36:06.170Z,100057.35
2019-05-29T00:38:56.614Z,100064.15
2019-05-29T00:41:46.855Z,100052.66
2019-05-29T00:44:37.102Z,100061.48
2019-05-29T00:47:27.272Z,100062.40
2019-05-29T00:50:17.463Z,100065.62
2019-05-29T00:53:08.754Z,100078.10
2019-05-29T00:55:58.986Z,100080.58
2019-05-29T00:58:49.398Z,100072.74
2019-05-29T01:01:39.400Z,100078.19
2019-05-29T01:04:29.564Z,100079.70
2019-05-29T01:07:20.532Z,100074.22
2019-05-29T01:10:13.027Z,100070.19
2019-05-29T01:13:03.494Z,100075.31
2019-05-29T01:15:53.805Z,100075.34
2019-05-29T01:18:44.072Z,100080.93
2019-05-29T01:21:34.268Z,100079.14
2019-05-29T01:24:24.199Z,100081.77
2019-05-29T01:27:15.119Z,100075.23
2019-05-29T01:30:05.921Z,100088.37
2019-05-29T01:32:56.201Z,100085.56
2019-05-29T01:35:46.402Z,100086.03
2019-05-29T01:38:36.634Z,100081.68
2019-05-29T01:41:28.023Z,100085.41
2019-05-29T01:44:19.324Z,100091.22
2019-05-29T01:47:09.466Z,100095.60
2019-05-29T01:49:59.884Z,100098.17
2019-05-29T01:52:50.060Z,100108.55
2019-05-29T01:55:40.334Z,100102.83
2019-05-29T01:58:30.250Z,100103.20
2019-05-29T02:01:21.917Z,100098.17
2019-05-29T02:04:12.204Z,100101.20
2019-05-29T02:07:02.580Z,100100.59
2019-05-29T02:09:52.578Z,100094.92
2019-05-29T02:12:42.600Z,100101.69
2019-05-29T02:15:34.134Z,100097.98
2019-05-29T02:18:25.089Z,100095.30
2019-05-29T02:21:15.916Z,100098.19
2019-05-29T02:24:06.475Z,100095.00
2019-05-29T02:26:56.664Z,100094.92
2019-05-29T02:29:46.913Z,100095.77
2019-05-29T02:32:37.219Z,100101.52
2019-05-29T02:35:29.435Z,100095.11
2019-05-29T02:38:20.509Z,100091.48
2019-05-29T02:41:10.647Z,100097.77
2019-05-29T02:44:00.619Z,100095.13
2019-05-29T02:46:50.822Z,100098.94
2019-05-29T02:49:41.060Z,100104.50
2019-05-29T02:52:31.434Z,100108.55
2019-05-29T02:55:22.550Z,100111.66
2019-05-29T02:58:13.115Z,100110.44
2019-05-29T03:01:03.330Z,100108.09
2019-05-29T03:03:53.666Z,100112.44
2019-05-29T03:06:43.867Z,100113.50
2019-05-29T03:09:33.872Z,100114.77
2019-05-29T03:12:25.008Z,100121.09
2019-05-29T03:15:15.229Z,100121.95
2019-05-29T03:18:05.508Z,100127.15
2019-05-29T03:20:55.760Z,100126.52
2019-05-29T03:23:46.265Z,100137.33
2019-05-29T03:26:38.208Z,100144.86
2019-05-29T03:29:30.018Z,100154.41
2019-05-29T03:32:20.584Z,100166.08
2019-05-29T03:35:10.805Z,100176.72
2019-05-29T03:38:00.931Z,100183.94
2019-05-29T03:40:51.188Z,100178.38
2019-05-29T03:43:41.145Z,100179.73
2019-05-29T03:46:41.300Z,100187.48
2019-05-29T03:49:22.866Z,100183.59
2019-05-29T03:52:13.112Z,100188.84
2019-05-29T03:55:03.174Z,100193.20
2019-05-29T03:57:53.562Z,100191.14
2019-05-29T04:00:46.370Z,100203.24
2019-05-29T04:03:37.672Z,100200.10
2019-05-29T04:06:28.997Z,100204.08
2019-05-29T04:09:19.227Z,100210.03
2019-05-29T04:12:09.588Z,100208.84
2019-05-29T04:14:59.834Z,100215.55
2019-05-29T04:17:50.169Z,100217.00
2019-05-29T04:20:41.001Z,100213.38
2019-05-29T04:23:34.198Z,100222.80
2019-05-29T04:26:25.760Z,100223.34
2019-05-29T04:29:16.284Z,100224.09
2019-05-29T04:32:07.121Z,100229.41
2019-05-29T04:34:58.027Z,100235.52
2019-05-29T04:37:48.782Z,100240.63
2019-05-29T04:40:39.894Z,100243.73
2019-05-29T04:43:31.294Z,100249.90
2019-05-29T04:46:23.406Z,100261.52
2019-05-29T04:49:14.155Z,100258.04
2019-05-29T04:52:05.098Z,100265.58
2019-05-29T04:54:55.994Z,100264.26
2019-05-29T04:57:50.530Z,100264.26
2019-05-29T05:00:39.511Z,100266.91
2019-05-29T05:03:31.013Z,100264.75
2019-05-29T05:06:22.124Z,100267.20
2019-05-29T05:09:12.815Z,100276.70
2019-05-29T05:12:03.398Z,100280.97
2019-05-29T05:14:54.182Z,100285.54
2019-05-29T05:17:44.747Z,100286.96
2019-05-29T05:20:36.265Z,100288.39
2019-05-29T05:23:27.260Z,100280.23
2019-05-29T05:26:18.097Z,100285.98
2019-05-29T05:29:08.572Z,100296.08
2019-05-29T05:31:59.128Z,100300.04
2019-05-29T05:34:49.969Z,100305.38
2019-05-29T05:37:41.051Z,100308.94
2019-05-29T05:40:33.011Z,100311.40
2019-05-29T05:43:24.670Z,100319.81
2019-05-29T05:46:16.260Z,100310.67
2019-05-29T05:49:07.300Z,100325.29
2019-05-29T05:51:57.872Z,100321.41
2019-05-29T05:54:48.715Z,100322.73
2019-05-29T05:57:39.774Z,100327.18
2019-05-29T06:00:31.976Z,100334.03
2019-05-29T06:03:22.309Z,100343.64
2019-05-29T06:12:15.958Z,100337.16
2019-05-29T06:15:07.433Z,100343.92
2019-05-29T06:18:19.379Z,100335.42
2019-05-29T06:20:50.216Z,100348.50
2019-05-29T06:23:41.149Z,100352.93
2019-05-29T06:26:32.704Z,100358.21
2019-05-29T06:29:23.157Z,100357.92
2019-05-29T06:32:13.554Z,100365.09
2019-05-29T06:35:04.094Z,100356.82
2019-05-29T06:37:54.605Z,100365.65
2019-05-29T06:40:45.498Z,100358.38
2019-05-29T06:43:35.997Z,100360.50
2019-05-29T06:46:26.485Z,100359.61
2019-05-29T06:49:16.739Z,100364.45
2019-05-29T06:52:09.168Z,100366.21
2019-05-29T06:54:59.604Z,100364.04
2019-05-29T06:57:50.068Z,100360.92
2019-05-29T07:00:41.145Z,100366.31
2019-05-29T07:03:32.427Z,100367.19
2019-05-29T07:06:23.007Z,100370.14
2019-05-29T07:09:13.506Z,100370.50
2019-05-29T07:12:04.072Z,100361.16
2019-05-29T07:14:54.675Z,100371.83
2019-05-29T07:17:45.217Z,100358.42
2019-05-29T07:20:36.530Z,100360.02
2019-05-29T07:23:27.125Z,100357.57
2019-05-29T07:26:17.698Z,100360.16
2019-05-29T07:29:08.811Z,100358.30
2019-05-29T07:31:59.368Z,100364.12
2019-05-29T07:35:02.772Z,100361.50
2019-05-29T07:37:41.778Z,100366.47
2019-05-29T07:40:35.757Z,100360.30
2019-05-29T07:43:24.813Z,100365.44
2019-05-29T07:46:15.527Z,100365.52
2019-05-29T07:49:06.011Z,100360.38
2019-05-29T07:51:56.506Z,100359.95
2019-05-29T07:54:48.041Z,100360.44
2019-05-29T07:57:38.956Z,100360.89
2019-05-29T08:00:35.623Z,100363.70
2019-05-29T08:03:21.375Z,100362.00
2019-05-29T08:06:12.110Z,100354.14
2019-05-29T08:09:02.914Z,100359.39
2019-05-29T08:11:53.553Z,100355.75
2019-05-29T08:14:45.721Z,100354.92
2019-05-29T08:17:37.101Z,100354.92
2019-05-29T08:20:27.907Z,100363.58
2019-05-29T08:23:18.448Z,100356.86
2019-05-29T08:26:09.323Z,100360.30
2019-05-29T08:29:00.107Z,100358.08
2019-05-29T08:31:51.026Z,100360.86
2019-05-29T08:34:43.053Z,100357.40
2019-05-29T08:37:34.086Z,100357.62
2019-05-29T08:40:24.874Z,100363.62
2019-05-29T08:43:15.833Z,100364.04
2019-05-29T08:46:06.734Z,100375.91
2019-05-29T08:48:57.734Z,100369.64
2019-05-29T08:51:48.569Z,100371.63
2019-05-29T08:54:43.987Z,100372.36
2019-05-29T08:57:35.891Z,100369.97
2019-05-29T09:00:26.788Z,100372.54
2019-05-29T09:03:17.585Z,100372.44
2019-05-29T09:06:09.212Z,100369.52
2019-05-29T09:09:00.373Z,100366.31
2019-05-29T09:11:51.856Z,100371.69
2019-05-29T09:14:42.662Z,100370.43
2019-05-29T09:17:34.547Z,100370.61
2019-05-29T09:20:37.276Z,100368.55
2019-05-29T09:23:18.863Z,100362.98
2019-05-29T09:26:15.800Z,100366.48
2019-05-29T09:29:01.733Z,100366.48
2019-05-29T09:31:52.604Z,100367.02
2019-05-29T09:34:43.159Z,100370.75
2019-05-29T09:37:34.010Z,100363.80
2019-05-29T09:40:25.036Z,100372.00
2019-05-29T09:43:16.942Z,100365.95
2019-05-29T09:46:08.577Z,100373.42
2019-05-29T09:49:01.644Z,100375.98
2019-05-29T09:51:52.650Z,100373.55
2019-05-29T09:54:44.369Z,100378.76
2019-05-29T09:57:35.107Z,100371.87
2019-05-29T10:00:26.242Z,100377.39
2019-05-29T10:03:16.874Z,100378.25
2019-05-29T10:06:09.535Z,100381.30
2019-05-29T10:09:01.652Z,100378.41
2019-05-29T10:11:58.507Z,100380.69
2019-05-29T10:14:46.846Z,100380.30
2019-05-29T10:17:37.674Z,100372.69
2019-05-29T10:20:28.648Z,100376.91
2019-05-29T10:23:20.314Z,100376.91
2019-05-29T10:26:10.884Z,100377.51
2019-05-29T10:29:08.253Z,100370.09
2019-05-29T10:31:54.424Z,100372.28
2019-05-29T10:34:46.308Z,100373.40
2019-05-29T10:37:37.444Z,100380.13
2019-05-29T10:40:28.497Z,100380.43
2019-05-29T10:43:33.191Z,100376.99
2019-05-29T10:46:12.168Z,100376.80
2019-05-29T10:49:04.726Z,100380.59
2019-05-29T10:52:12.893Z,100379.97
2019-05-29T10:54:48.267Z,100376.41
2019-05-29T10:57:39.297Z,100366.83
2019-05-29T11:00:30.164Z,100359.20
2019-05-29T11:03:20.983Z,100352.05
2019-05-29T11:06:11.704Z,100357.28
2019-05-29T11:09:02.289Z,100352.39
2019-05-29T11:11:55.152Z,100365.98
2019-05-29T11:14:46.476Z,100360.09
2019-05-29T11:17:37.108Z,100361.08
2019-05-29T11:20:27.984Z,100361.33
2019-05-29T11:23:18.750Z,100364.52
2019-05-29T11:26:09.573Z,100361.23
2019-05-29T11:29:00.303Z,100355.33
2019-05-29T11:31:51.241Z,100356.13
2019-05-29T11:34:43.795Z,100355.94
2019-05-29T11:37:34.645Z,100362.95
2019-05-29T11:40:25.527Z,100355.37
2019-05-29T11:43:16.344Z,100359.72
2019-05-29T11:46:07.453Z,100356.33
2019-05-29T11:48:59.390Z,100353.77
2019-05-29T11:51:51.594Z,100348.11
2019-05-29T11:54:42.548Z,100346.57
2019-05-29T11:57:33.649Z,100349.88
2019-05-29T12:00:24.745Z,100345.13
2019-05-29T12:03:15.604Z,100344.86
2019-05-29T12:06:06.697Z,100344.30
2019-05-29T12:08:58.030Z,100349.66
2019-05-29T12:11:48.732Z,100353.45
2019-05-29T12:14:59.227Z,100357.05
2019-05-29T12:17:31.739Z,100350.94
2019-05-29T12:20:28.081Z,100344.53
2019-05-29T12:23:25.983Z,100350.09
2019-05-29T12:26:21.454Z,100343.05
2019-05-29T12:29:08.385Z,100351.79
2019-05-29T12:31:52.970Z,100340.66
2019-05-29T12:34:53.142Z,100342.63
2019-05-29T12:37:36.087Z,100342.27
2019-05-29T12:40:27.042Z,100342.44
2019-05-29T12:43:27.287Z,100342.59
2019-05-29T12:46:10.429Z,100339.30
2019-05-29T12:49:01.729Z,100334.20
2019-05-29T12:51:53.502Z,100335.18
2019-05-29T12:54:44.390Z,100335.41
2019-05-29T12:57:35.462Z,100330.38
2019-05-29T13:00:26.026Z,100330.25
2019-05-29T13:03:16.817Z,100331.00
2019-05-29T13:06:07.583Z,100337.70
2019-05-29T13:08:58.552Z,100337.81
2019-05-29T13:11:49.436Z,100337.48
2019-05-29T13:14:40.075Z,100334.72
2019-05-29T13:17:30.741Z,100335.07
2019-05-29T13:20:22.388Z,100324.81
2019-05-29T13:23:13.485Z,100328.11
2019-05-29T13:26:05.632Z,100324.09
2019-05-29T13:28:57.548Z,100329.00
2019-05-29T13:31:48.464Z,100328.69
2019-05-29T13:34:39.298Z,100329.89
2019-05-29T13:37:30.154Z,100333.91
2019-05-29T13:40:20.700Z,100332.98
2019-05-29T13:43:15.484Z,100324.70
2019-05-29T13:46:04.630Z,100331.44
2019-05-29T13:48:56.731Z,100332.53
2019-05-29T13:51:47.576Z,100337.72
2019-05-29T13:54:38.262Z,100343.61
2019-05-29T13:57:29.062Z,100340.47
2019-05-29T14:00:33.349Z,100343.50
2019-05-29T14:03:11.837Z,100340.23
2019-05-29T14:06:03.113Z,100349.27
2019-05-29T14:08:54.560Z,100343.31
2019-05-29T14:11:45.463Z,100347.56
2019-05-29T14:14:36.215Z,100350.50
2019-05-29T14:17:27.525Z,100347.06
2019-05-29T14:20:18.234Z,100348.14
2019-05-29T14:23:09.634Z,100346.22
2019-05-29T14:26:00.691Z,100345.87
2019-05-29T14:28:51.754Z,100346.21
2019-05-29T14:37:34.868Z,100341.97
2019-05-29T14:40:25.385Z,100341.66
2019-05-29T14:43:16.324Z,100348.96
2019-05-29T14:46:08.001Z,100346.11
2019-05-29T14:48:59.095Z,100348.30
2019-05-29T14:51:49.651Z,100350.65
2019-05-29T14:54:42.153Z,100353.05
2019-05-29T14:57:32.746Z,100347.87
2019-05-29T15:00:25.722Z,100352.50
2019-05-29T15:03:16.082Z,100356.13
2019-05-29T15:06:07.604Z,100349.91
2019-05-29T15:08:58.662Z,100343.70
2019-05-29T15:11:49.791Z,100351.28
2019-05-29T15:14:40.479Z,100352.22
2019-05-29T15:17:31.148Z,100350.33
2019-05-29T15:20:21.965Z,100349.61
2019-05-29T15:23:13.501Z,100357.30
2019-05-29T15:26:04.057Z,100357.41
2019-05-29T15:28:54.731Z,100352.15
2019-05-29T15:31:45.562Z,100356.13
2019-05-29T15:34:36.484Z,100362.27
2019-05-29T15:37:27.226Z,100363.44
2019-05-29T15:40:18.181Z,100364.69
2019-05-29T15:43:08.901Z,100362.04
2019-05-29T15:45:59.564Z,100360.70
2019-05-29T15:48:50.082Z,100360.27
2019-05-29T15:51:41.036Z,100363.95
2019-05-29T15:54:31.959Z,100367.94
2019-05-29T15:57:23.062Z,100364.23
2019-05-29T16:00:15.470Z,100362.23
2019-05-29T16:03:07.624Z,100364.35
2019-05-29T16:05:58.747Z,100369.63
2019-05-29T16:08:49.668Z,100370.73
2019-05-29T16:11:41.734Z,100373.59
2019-05-29T16:14:32.595Z,100380.10
2019-05-29T16:17:24.570Z,100385.27
2019-05-29T16:20:16.876Z,100386.73
2019-05-29T16:23:07.447Z,100382.10
2019-05-29T16:25:58.343Z,100385.56
2019-05-29T16:28:49.208Z,100387.35
2019-05-29T16:31:40.061Z,100381.41
2019-05-29T16:34:30.827Z,100384.14
2019-05-29T16:37:22.199Z,100376.28
2019-05-29T16:40:14.178Z,100376.93
2019-05-29T16:43:05.305Z,100385.31
2019-05-29T16:45:56.144Z,100388.16
2019-05-29T16:48:47.054Z,100387.16
2019-05-29T16:51:37.615Z,100384.09
2019-05-29T16:54:28.588Z,100383.86
2019-05-29T16:57:19.425Z,100389.45
2019-05-29T17:00:10.316Z,100392.70
2019-05-29T17:03:00.995Z,100388.33
2019-05-29T17:05:51.754Z,100386.92
2019-05-29T17:08:42.716Z,100397.40
2019-05-29T17:11:33.276Z,100400.84
2019-05-29T17:14:25.088Z,100403.08
2019-05-29T17:17:16.875Z,100401.25
2019-05-29T17:20:07.381Z,100404.89
2019-05-29T17:22:59.009Z,100407.77
2019-05-29T17:25:49.599Z,100408.48
2019-05-29T17:28:40.498Z,100417.17
2019-05-29T17:31:31.341Z,100411.67
2019-05-29T17:34:23.217Z,100410.65
2019-05-29T17:37:15.096Z,100417.68
2019-05-29T17:40:06.393Z,100414.09
2019-05-29T17:42:56.977Z,100421.38
2019-05-29T17:45:48.140Z,100413.36
2019-05-29T17:48:38.119Z,100412.20
2019-05-29T17:51:28.766Z,100416.17
2019-05-29T17:54:19.757Z,100416.48
2019-05-29T17:57:10.485Z,100431.28
2019-05-29T18:00:04.843Z,100423.44
2019-05-29T18:02:56.720Z,100427.89
2019-05-29T18:05:47.028Z,100432.96
2019-05-29T18:08:37.967Z,100430.53
2019-05-29T18:11:30.123Z,100435.59
2019-05-29T18:14:21.190Z,100426.13
2019-05-29T18:17:11.936Z,100430.45
2019-05-29T18:20:02.104Z,100428.98
2019-05-29T18:22:52.884Z,100436.45
2019-05-29T18:25:43.188Z,100441.44
2019-05-29T18:28:34.371Z,100440.59
2019-05-29T18:48:57.004Z,100456.70
2019-05-29T18:51:47.015Z,100451.13
2019-05-29T18:54:36.901Z,100456.98
2019-05-29T18:57:27.394Z,100459.20
2019-05-29T19:00:18.457Z,100466.00
2019-05-29T19:03:08.293Z,100466.81
2019-05-29T19:06:00.196Z,100465.96
2019-05-29T19:08:50.188Z,100469.00
2019-05-29T19:11:39.978Z,100472.17
2019-05-29T19:14:30.208Z,100471.59
2019-05-29T19:17:21.902Z,100482.27
2019-05-29T19:20:12.151Z,100476.84
2019-05-29T19:23:02.558Z,100478.61
2019-05-29T19:25:52.409Z,100468.39
2019-05-29T19:28:42.706Z,100469.16
2019-05-29T19:31:33.361Z,100473.05
2019-05-29T19:34:23.851Z,100481.70
2019-05-29T19:37:14.317Z,100476.61
2019-05-29T19:40:04.834Z,100477.69
2019-05-29T19:42:54.963Z,100486.22
2019-05-29T19:45:45.257Z,100474.67
2019-05-29T19:48:35.664Z,100478.41
2019-05-29T19:51:27.287Z,100484.17
2019-05-29T19:54:17.800Z,100483.50
2019-05-29T19:57:08.036Z,100492.47
2019-05-29T19:59:58.347Z,100492.28
2019-05-29T20:02:48.572Z,100509.37
2019-05-29T20:05:38.748Z,100512.70
2019-05-29T20:08:32.662Z,100520.95
2019-05-29T20:11:20.915Z,100524.72
2019-05-29T20:14:11.004Z,100521.94
2019-05-29T20:17:01.067Z,100527.52
2019-05-29T20:19:51.596Z,100523.78
2019-05-29T20:22:41.885Z,100520.12
2019-05-29T20:25:32.800Z,100516.69
2019-05-29T20:28:23.282Z,100508.84
2019-05-29T20:31:13.403Z,100500.64
2019-05-29T20:34:03.275Z,100506.49
2019-05-29T20:36:53.680Z,100494.59
2019-05-29T20:39:43.983Z,100495.36
2019-05-29T20:42:34.317Z,100498.28
2019-05-29T20:45:24.433Z,100500.03
2019-05-29T20:48:15.776Z,100494.87
2019-05-29T20:51:05.891Z,100491.02
2019-05-29T20:53:55.975Z,100505.20
2019-05-29T20:56:46.142Z,100502.38
2019-05-29T20:59:36.251Z,100502.38
2019-05-29T21:02:26.484Z,100504.41
2019-05-29T21:05:17.068Z,100497.51
2019-05-29T21:08:06.998Z,100499.75
2019-05-29T21:10:57.335Z,100503.27
2019-05-29T21:13:47.369Z,100508.37
2019-05-29T21:16:37.910Z,100507.92
2019-05-29T21:19:28.303Z,100509.31
2019-05-29T21:22:18.416Z,100503.87
2019-05-29T21:25:11.986Z,100505.42
2019-05-29T21:28:00.374Z,100504.73
2019-05-29T21:30:50.357Z,100504.03
2019-05-29T21:33:44.089Z,100508.69
2019-05-29T21:36:32.394Z,100510.75
2019-05-29T21:39:22.711Z,100510.45
2019-05-29T21:42:12.936Z,100509.22
2019-05-29T21:45:03.063Z,100516.39
2019-05-29T21:47:53.456Z,100518.05
2019-05-29T21:50:43.980Z,100518.72
2019-05-29T21:53:34.226Z,100511.96
2019-05-29T21:56:25.602Z,100506.76
2019-05-29T21:59:15.511Z,100504.30
2019-05-29T22:02:05.830Z,100496.75
2019-05-29T22:04:55.843Z,100497.16
2019-05-29T22:07:46.927Z,100492.19
2019-05-29T22:10:37.112Z,100501.48
2019-05-29T22:13:27.437Z,100510.26
2019-05-29T22:16:17.704Z,100509.88
2019-05-29T22:19:08.131Z,100504.14
2019-05-29T22:21:59.180Z,100502.19
2019-05-29T22:24:51.001Z,100504.22
2019-05-29T22:27:41.259Z,100508.11
2019-05-29T22:30:31.671Z,100505.58
2019-05-29T22:33:21.849Z,100502.91
2019-05-29T22:36:12.205Z,100507.83
2019-05-29T22:39:02.175Z,100506.88
2019-05-29T22:41:54.003Z,100502.95
2019-05-29T22:44:44.028Z,100510.71
2019-05-29T22:47:34.306Z,100517.93
2019-05-29T22:50:24.304Z,100522.13
2019-05-29T22:53:14.708Z,100516.57
2019-05-29T22:56:05.234Z,100520.34
2019-05-29T22:58:56.053Z,100510.63
2019-05-29T23:01:47.305Z,100519.70
2019-05-29T23:04:37.439Z,100519.80
2019-05-29T23:07:27.599Z,100526.98
2019-05-29T23:10:17.624Z,100530.00
2019-05-29T23:13:07.914Z,100526.77
2019-05-29T23:15:58.733Z,100524.32
2019-05-29T23:18:49.278Z,100535.23
2019-05-29T23:21:39.561Z,100527.56
2019-05-29T23:24:30.066Z,100534.16
2019-05-29T23:27:20.414Z,100524.69
2019-05-29T23:30:10.799Z,100534.24
2019-05-29T23:33:01.244Z,100531.18
2019-05-29T23:35:52.923Z,100528.27
2019-05-29T23:38:43.316Z,100537.47
2019-05-29T23:41:33.462Z,100534.62
2019-05-29T23:44:23.860Z,100530.77
2019-05-29T23:47:14.112Z,100531.36
2019-05-29T23:50:04.620Z,100539.03
2019-05-29T23:52:55.582Z,100532.97
2019-05-29T23:55:46.184Z,100533.27
2019-05-29T23:58:36.296Z,100532.88
